KSLN/SLN METAR and TAF weather

Enter ICAO airport designator
Station Type Date Time Source
KSLN METAR 2021/04/18 01:53 UTC NOAA

KSLN 180153Z 34004KT 10SM OVC075 08/04 A3013 RMK AO2 SLP205 T00830044


Station Type Date Time Source
KSLN Decoded METAR 2021/04/18 01:53 UTC NOAA

SALINA MUNICIPAL AIRPORT, KS, United States (KSLN) 38-47N 97-39W 385M
Apr 17, 2021 - 09:53 PM EDT / 2021.04.18 0153 UTC
Wind: from the NNW (340 degrees) at 5 MPH (4 KT):0
Visibility: 10 mile(s):0
Sky conditions: overcast
Temperature: 46.9 F (8.3 C)
Dew Point: 39.9 F (4.4 C)
Relative Humidity: 76%
Pressure (altimeter): 30.13 in. Hg (1020 hPa)
ob: KSLN 180153Z 34004KT 10SM OVC075 08/04 A3013 RMK AO2 SLP205 T00830044
cycle: 2

Station Type Date Time Source
KSLN TAF 2021/04/17 18:28 UTC NOAA

TAF KSLN 171726Z 1718/1818 34014KT P6SM SCT015 BKN025
FM172000 34013KT P6SM SCT025 BKN035
FM180500 33006KT P6SM SCT040

Example: see airport list